sensor_id;sensor_type;location;lat;lon;timestamp;pressure;altitude;pressure_sealevel;temperature;humidity
14810;BME280;7496;57.566;11.936;2022-07-30T09:56:26;101805.28;;;20.90;100.00
14810;BME280;7496;57.566;11.936;2022-07-30T09:58:54;101791.16;;;20.93;100.00
14810;BME280;7496;57.566;11.936;2022-07-30T10:01:21;101800.84;;;21.17;100.00
14810;BME280;7496;57.566;11.936;2022-07-30T10:03:48;101798.44;;;21.33;100.00
14810;BME280;7496;57.566;11.936;2022-07-30T10:06:15;101783.38;;;21.30;100.00
14810;BME280;7496;57.566;11.936;2022-07-30T10:08:43;101803.22;;;21.59;100.00
14810;BME280;7496;57.566;11.936;2022-07-30T10:11:12;101787.84;;;21.70;100.00
14810;BME280;7496;57.566;11.936;2022-07-30T10:13:40;101796.44;;;21.78;100.00
14810;BME280;7496;57.566;11.936;2022-07-30T10:16:08;101796.56;;;21.88;100.00
14810;BME280;7496;57.566;11.936;2022-07-30T10:18:35;101783.03;;;21.93;100.00
14810;BME280;7496;57.566;11.936;2022-07-30T10:21:03;101796.25;;;22.18;100.00
14810;BME280;7496;57.566;11.936;2022-07-30T10:23:31;101805.31;;;22.24;100.00
14810;BME280;7496;57.566;11.936;2022-07-30T10:25:59;101808.28;;;22.22;100.00
14810;BME280;7496;57.566;11.936;2022-07-30T10:28:28;101792.88;;;22.33;100.00
14810;BME280;7496;57.566;11.936;2022-07-30T10:30:57;101797.75;;;22.53;100.00
14810;BME280;7496;57.566;11.936;2022-07-30T10:33:26;101795.22;;;22.68;100.00
14810;BME280;7496;57.566;11.936;2022-07-30T10:35:53;101797.94;;;22.90;100.00
14810;BME280;7496;57.566;11.936;2022-07-30T10:38:22;101803.44;;;22.95;100.00
14810;BME280;7496;57.566;11.936;2022-07-30T10:40:53;101796.78;;;22.86;100.00
14810;BME280;7496;57.566;11.936;2022-07-30T10:43:51;101798.75;;;22.90;100.00
14810;BME280;7496;57.566;11.936;2022-07-30T10:46:28;101799.38;;;22.97;100.00
14810;BME280;7496;57.566;11.936;2022-07-30T10:49:07;101788.22;;;23.04;100.00
14810;BME280;7496;57.566;11.936;2022-07-30T10:51:45;101799.84;;;23.16;100.00
14810;BME280;7496;57.566;11.936;2022-07-30T10:54:34;101787.38;;;23.30;100.00
14810;BME280;7496;57.566;11.936;2022-07-30T10:57:05;101768.78;;;23.32;100.00
14810;BME280;7496;57.566;11.936;2022-07-30T11:00:07;101784.50;;;23.47;100.00
14810;BME280;7496;57.566;11.936;2022-07-30T11:02:35;101765.69;;;23.51;100.00
14810;BME280;7496;57.566;11.936;2022-07-30T11:05:22;101784.44;;;23.74;100.00
14810;BME280;7496;57.566;11.936;2022-07-30T11:07:49;101782.09;;;23.51;100.00
14810;BME280;7496;57.566;11.936;2022-07-30T11:10:36;101779.06;;;23.89;100.00
14810;BME280;7496;57.566;11.936;2022-07-30T11:13:04;101757.78;;;24.01;100.00
14810;BME280;7496;57.566;11.936;2022-07-30T11:15:54;101766.19;;;24.32;100.00
14810;BME280;7496;57.566;11.936;2022-07-30T11:18:25;101767.78;;;24.28;100.00
14810;BME280;7496;57.566;11.936;2022-07-30T11:21:17;101768.91;;;24.32;100.00
14810;BME280;7496;57.566;11.936;2022-07-30T11:23:45;101765.72;;;24.65;100.00
14810;BME280;7496;57.566;11.936;2022-07-30T11:29:33;101774.00;;;24.90;100.00
14810;BME280;7496;57.566;11.936;2022-07-30T11:32:24;101764.03;;;24.49;100.00
14810;BME280;7496;57.566;11.936;2022-07-30T11:35:11;101765.69;;;24.50;100.00
14810;BME280;7496;57.566;11.936;2022-07-30T11:38:01;101766.19;;;24.37;100.00
14810;BME280;7496;57.566;11.936;2022-07-30T11:40:30;101770.56;;;24.43;99.48
14810;BME280;7496;57.566;11.936;2022-07-30T11:43:17;101759.63;;;24.53;100.00
14810;BME280;7496;57.566;11.936;2022-07-30T11:45:46;101752.31;;;24.84;100.00
14810;BME280;7496;57.566;11.936;2022-07-30T11:48:15;101757.03;;;25.09;95.04
14810;BME280;7496;57.566;11.936;2022-07-30T11:50:45;101750.47;;;25.20;93.51
14810;BME280;7496;57.566;11.936;2022-07-30T11:53:14;101738.94;;;25.43;95.67
14810;BME280;7496;57.566;11.936;2022-07-30T11:55:43;101739.47;;;25.35;88.23
14810;BME280;7496;57.566;11.936;2022-07-30T11:58:22;101735.88;;;25.45;85.06
14810;BME280;7496;57.566;11.936;2022-07-30T12:00:50;101735.09;;;25.44;89.26
14810;BME280;7496;57.566;11.936;2022-07-30T12:03:18;101742.19;;;25.65;88.21
14810;BME280;7496;57.566;11.936;2022-07-30T12:05:46;101742.47;;;25.69;89.59
14810;BME280;7496;57.566;11.936;2022-07-30T12:08:14;101743.28;;;25.80;90.21
14810;BME280;7496;57.566;11.936;2022-07-30T12:10:41;101737.50;;;25.81;87.99
14810;BME280;7496;57.566;11.936;2022-07-30T12:13:10;101742.16;;;25.86;89.25
14810;BME280;7496;57.566;11.936;2022-07-30T12:15:38;101742.16;;;25.86;87.38
14810;BME280;7496;57.566;11.936;2022-07-30T12:18:06;101739.41;;;25.76;85.32
14810;BME280;7496;57.566;11.936;2022-07-30T12:20:35;101744.09;;;25.80;87.20
14810;BME280;7496;57.566;11.936;2022-07-30T12:23:09;101722.94;;;25.81;84.15
14810;BME280;7496;57.566;11.936;2022-07-30T12:25:38;101726.75;;;25.90;82.88
14810;BME280;7496;57.566;11.936;2022-07-30T12:28:05;101735.47;;;26.12;86.95
14810;BME280;7496;57.566;11.936;2022-07-30T12:30:32;101734.88;;;26.25;88.08
14810;BME280;7496;57.566;11.936;2022-07-30T12:33:00;101735.41;;;26.32;84.06
14810;BME280;7496;57.566;11.936;2022-07-30T12:35:41;101738.44;;;26.31;87.01
14810;BME280;7496;57.566;11.936;2022-07-30T12:38:08;101733.16;;;26.45;86.36
14810;BME280;7496;57.566;11.936;2022-07-30T12:40:50;101728.28;;;26.16;82.35
14810;BME280;7496;57.566;11.936;2022-07-30T12:43:17;101729.38;;;26.25;81.57
14810;BME280;7496;57.566;11.936;2022-07-30T12:45:43;101734.81;;;26.41;82.06
14810;BME280;7496;57.566;11.936;2022-07-30T12:48:10;101733.28;;;26.14;78.70
14810;BME280;7496;57.566;11.936;2022-07-30T12:50:37;101739.31;;;26.11;79.53
14810;BME280;7496;57.566;11.936;2022-07-30T12:53:04;101739.88;;;26.08;80.61
14810;BME280;7496;57.566;11.936;2022-07-30T12:55:35;101733.91;;;25.91;81.27
14810;BME280;7496;57.566;11.936;2022-07-30T12:58:03;101724.53;;;26.02;82.96
14810;BME280;7496;57.566;11.936;2022-07-30T13:00:32;101733.28;;;26.09;84.28
14810;BME280;7496;57.566;11.936;2022-07-30T13:03:19;101722.75;;;26.31;82.45
14810;BME280;7496;57.566;11.936;2022-07-30T13:05:46;101727.94;;;26.38;85.12
14810;BME280;7496;57.566;11.936;2022-07-30T13:08:14;101724.91;;;26.39;81.34
14810;BME280;7496;57.566;11.936;2022-07-30T13:10:54;101719.91;;;26.52;81.72
14810;BME280;7496;57.566;11.936;2022-07-30T13:13:21;101714.94;;;26.54;78.03
14810;BME280;7496;57.566;11.936;2022-07-30T13:15:56;101710.25;;;26.54;78.24
14810;BME280;7496;57.566;11.936;2022-07-30T13:18:23;101709.38;;;26.64;79.76
14810;BME280;7496;57.566;11.936;2022-07-30T13:20:49;101699.94;;;26.75;82.04
14810;BME280;7496;57.566;11.936;2022-07-30T13:23:16;101700.91;;;26.89;78.08
14810;BME280;7496;57.566;11.936;2022-07-30T13:25:42;101704.63;;;27.08;81.01
14810;BME280;7496;57.566;11.936;2022-07-30T13:28:11;101700.38;;;27.50;80.23
14810;BME280;7496;57.566;11.936;2022-07-30T13:30:38;101695.75;;;27.74;78.62
14810;BME280;7496;57.566;11.936;2022-07-30T13:33:04;101689.28;;;27.84;75.50
14810;BME280;7496;57.566;11.936;2022-07-30T13:35:31;101694.19;;;27.68;76.79
14810;BME280;7496;57.566;11.936;2022-07-30T13:37:58;101689.97;;;27.47;77.88
14810;BME280;7496;57.566;11.936;2022-07-30T13:40:26;101688.59;;;27.73;77.18
14810;BME280;7496;57.566;11.936;2022-07-30T13:42:52;101690.25;;;27.74;72.20
14810;BME280;7496;57.566;11.936;2022-07-30T13:45:21;101689.13;;;27.75;75.24
14810;BME280;7496;57.566;11.936;2022-07-30T13:47:47;101679.91;;;27.85;73.99
14810;BME280;7496;57.566;11.936;2022-07-30T13:50:14;101684.03;;;27.88;73.43
14810;BME280;7496;57.566;11.936;2022-07-30T13:52:40;101682.38;;;27.87;73.03
14810;BME280;7496;57.566;11.936;2022-07-30T13:55:07;101687.91;;;27.87;72.89
14810;BME280;7496;57.566;11.936;2022-07-30T13:57:34;101683.53;;;27.80;71.88
14810;BME280;7496;57.566;11.936;2022-07-30T14:00:01;101682.38;;;27.87;71.62
14810;BME280;7496;57.566;11.936;2022-07-30T14:02:30;101662.28;;;28.05;71.64
14810;BME280;7496;57.566;11.936;2022-07-30T14:04:56;101664.50;;;28.03;71.64
14810;BME280;7496;57.566;11.936;2022-07-30T14:07:23;101660.59;;;28.09;73.00
14810;BME280;7496;57.566;11.936;2022-07-30T14:09:50;101662.88;;;28.02;67.02
14810;BME280;7496;57.566;11.936;2022-07-30T14:12:16;101653.47;;;27.84;68.22
14810;BME280;7496;57.566;11.936;2022-07-30T14:14:43;101655.81;;;27.96;67.31
14810;BME280;7496;57.566;11.936;2022-07-30T14:17:10;101654.44;;;28.17;66.54
14810;BME280;7496;57.566;11.936;2022-07-30T14:19:38;101653.22;;;28.23;65.36
14810;BME280;7496;57.566;11.936;2022-07-30T14:22:04;101642.22;;;28.23;65.03
14810;BME280;7496;57.566;11.936;2022-07-30T14:24:31;101648.16;;;28.30;63.02
14810;BME280;7496;57.566;11.936;2022-07-30T14:26:58;101652.56;;;28.31;65.91
14810;BME280;7496;57.566;11.936;2022-07-30T14:29:25;101638.19;;;28.34;64.84
14810;BME280;7496;57.566;11.936;2022-07-30T14:31:51;101652.09;;;27.81;62.69
14810;BME280;7496;57.566;11.936;2022-07-30T14:34:18;101647.53;;;27.72;66.38
14810;BME280;7496;57.566;11.936;2022-07-30T14:36:47;101641.56;;;27.89;64.13
14810;BME280;7496;57.566;11.936;2022-07-30T14:39:14;101645.91;;;27.47;66.27
14810;BME280;7496;57.566;11.936;2022-07-30T14:41:40;101638.47;;;27.19;71.68
14810;BME280;7496;57.566;11.936;2022-07-30T14:44:07;101646.88;;;27.03;73.69
14810;BME280;7496;57.566;11.936;2022-07-30T14:46:36;101641.44;;;26.59;72.39
14810;BME280;7496;57.566;11.936;2022-07-30T14:49:03;101631.59;;;26.53;75.44
14810;BME280;7496;57.566;11.936;2022-07-30T14:51:29;101649.38;;;26.22;76.55
14810;BME280;7496;57.566;11.936;2022-07-30T14:53:57;101633.31;;;25.90;77.97
14810;BME280;7496;57.566;11.936;2022-07-30T14:56:24;101633.84;;;25.97;78.94
14810;BME280;7496;57.566;11.936;2022-07-30T14:58:51;101636.16;;;25.75;79.46
14810;BME280;7496;57.566;11.936;2022-07-30T15:01:19;101625.22;;;25.64;83.36
14810;BME280;7496;57.566;11.936;2022-07-30T15:03:46;101618.38;;;25.37;82.66
14810;BME280;7496;57.566;11.936;2022-07-30T15:06:12;101640.38;;;25.26;84.16
14810;BME280;7496;57.566;11.936;2022-07-30T15:08:40;101637.06;;;25.35;87.25
14810;BME280;7496;57.566;11.936;2022-07-30T15:11:08;101628.59;;;25.16;85.72
14810;BME280;7496;57.566;11.936;2022-07-30T15:13:34;101623.69;;;25.13;88.47
14810;BME280;7496;57.566;11.936;2022-07-30T15:16:01;101633.00;;;24.97;88.44
14810;BME280;7496;57.566;11.936;2022-07-30T15:18:30;101627.78;;;24.75;88.68
14810;BME280;7496;57.566;11.936;2022-07-30T15:20:57;101637.91;;;24.84;90.08
14810;BME280;7496;57.566;11.936;2022-07-30T15:23:24;101634.63;;;24.87;92.25
14810;BME280;7496;57.566;11.936;2022-07-30T15:25:50;101637.38;;;24.87;92.12
14810;BME280;7496;57.566;11.936;2022-07-30T15:28:18;101625.88;;;24.70;90.71
14810;BME280;7496;57.566;11.936;2022-07-30T15:30:46;101629.41;;;24.66;86.46
14810;BME280;7496;57.566;11.936;2022-07-30T15:33:13;101629.16;;;24.72;91.25
14810;BME280;7496;57.566;11.936;2022-07-30T15:35:40;101626.94;;;24.74;90.83
14810;BME280;7496;57.566;11.936;2022-07-30T15:38:06;101619.28;;;24.61;90.68
14810;BME280;7496;57.566;11.936;2022-07-30T15:40:33;101615.44;;;24.67;87.58
14810;BME280;7496;57.566;11.936;2022-07-30T15:43:00;101614.88;;;24.55;86.34
14810;BME280;7496;57.566;11.936;2022-07-30T15:45:28;101611.59;;;24.58;88.25
14810;BME280;7496;57.566;11.936;2022-07-30T15:47:55;101608.59;;;24.60;90.06
14810;BME280;7496;57.566;11.936;2022-07-30T15:50:22;101603.94;;;24.60;86.44
14810;BME280;7496;57.566;11.936;2022-07-30T15:52:48;101592.66;;;24.56;87.35
14810;BME280;7496;57.566;11.936;2022-07-30T15:55:15;101603.91;;;24.50;85.56
14810;BME280;7496;57.566;11.936;2022-07-30T15:57:42;101599.50;;;24.44;88.95
14810;BME280;7496;57.566;11.936;2022-07-30T16:00:10;101601.16;;;24.45;88.66
14810;BME280;7496;57.566;11.936;2022-07-30T16:02:38;101597.31;;;24.26;84.50
14810;BME280;7496;57.566;11.936;2022-07-30T16:05:06;101599.50;;;24.24;87.30
14810;BME280;7496;57.566;11.936;2022-07-30T16:07:33;101601.13;;;24.25;87.86
14810;BME280;7496;57.566;11.936;2022-07-30T16:09:59;101595.69;;;24.30;88.02
14810;BME280;7496;57.566;11.936;2022-07-30T16:12:26;101601.44;;;24.28;88.82
14810;BME280;7496;57.566;11.936;2022-07-30T16:14:53;101601.69;;;24.22;90.66
14810;BME280;7496;57.566;11.936;2022-07-30T16:17:19;101602.22;;;24.24;91.85
14810;BME280;7496;57.566;11.936;2022-07-30T16:19:47;101603.63;;;24.26;94.11
14810;BME280;7496;57.566;11.936;2022-07-30T16:22:14;101596.50;;;24.35;93.49
14810;BME280;7496;57.566;11.936;2022-07-30T16:24:41;101596.22;;;24.32;92.35
14810;BME280;7496;57.566;11.936;2022-07-30T16:27:07;101590.47;;;24.28;92.92
14810;BME280;7496;57.566;11.936;2022-07-30T16:29:34;101593.72;;;24.20;89.41
14810;BME280;7496;57.566;11.936;2022-07-30T16:32:03;101600.03;;;24.20;91.93
14810;BME280;7496;57.566;11.936;2022-07-30T16:34:30;101593.50;;;24.32;92.27
14810;BME280;7496;57.566;11.936;2022-07-30T16:36:59;101596.25;;;24.42;91.33
14810;BME280;7496;57.566;11.936;2022-07-30T16:39:25;101595.97;;;24.48;89.43
14810;BME280;7496;57.566;11.936;2022-07-30T16:41:52;101586.66;;;24.39;89.19
14810;BME280;7496;57.566;11.936;2022-07-30T16:44:18;101591.59;;;24.42;89.56
14810;BME280;7496;57.566;11.936;2022-07-30T16:46:45;101581.41;;;24.28;85.02
14810;BME280;7496;57.566;11.936;2022-07-30T16:49:12;101584.41;;;24.21;86.71
14810;BME280;7496;57.566;11.936;2022-07-30T16:51:39;101579.16;;;24.14;87.08
14810;BME280;7496;57.566;11.936;2022-07-30T16:54:08;101570.97;;;24.19;87.34
14810;BME280;7496;57.566;11.936;2022-07-30T16:56:38;101583.63;;;24.51;84.84
14810;BME280;7496;57.566;11.936;2022-07-30T16:59:06;101578.38;;;24.85;85.30
14810;BME280;7496;57.566;11.936;2022-07-30T17:01:34;101577.56;;;25.05;83.85
14810;BME280;7496;57.566;11.936;2022-07-30T17:04:01;101569.56;;;25.23;83.28
14810;BME280;7496;57.566;11.936;2022-07-30T17:06:33;101546.78;;;25.23;79.26
14810;BME280;7496;57.566;11.936;2022-07-30T17:09:01;101563.75;;;25.35;80.22
14810;BME280;7496;57.566;11.936;2022-07-30T17:11:30;101564.09;;;25.23;81.15
14810;BME280;7496;57.566;11.936;2022-07-30T17:13:57;101559.19;;;25.10;80.01
14810;BME280;7496;57.566;11.936;2022-07-30T17:16:24;101552.31;;;25.13;81.83
14810;BME280;7496;57.566;11.936;2022-07-30T17:18:50;101556.72;;;25.14;81.71
14810;BME280;7496;57.566;11.936;2022-07-30T17:21:17;101553.97;;;25.14;80.46
14810;BME280;7496;57.566;11.936;2022-07-30T17:23:44;101549.03;;;24.90;77.70
14810;BME280;7496;57.566;11.936;2022-07-30T17:26:10;101558.94;;;24.97;79.20
14810;BME280;7496;57.566;11.936;2022-07-30T17:28:38;101551.78;;;24.96;81.58
14810;BME280;7496;57.566;11.936;2022-07-30T17:31:05;101551.53;;;25.02;80.42
14810;BME280;7496;57.566;11.936;2022-07-30T17:33:32;101558.38;;;24.89;80.96
14810;BME280;7496;57.566;11.936;2022-07-30T17:35:59;101557.56;;;24.74;81.31
14810;BME280;7496;57.566;11.936;2022-07-30T17:38:25;101554.56;;;24.70;83.24
14810;BME280;7496;57.566;11.936;2022-07-30T17:40:53;101556.22;;;24.61;82.75
14810;BME280;7496;57.566;11.936;2022-07-30T17:43:19;101567.72;;;24.58;83.18
14810;BME280;7496;57.566;11.936;2022-07-30T17:45:47;101561.13;;;24.54;83.27
14810;BME280;7496;57.566;11.936;2022-07-30T17:48:14;101563.88;;;24.39;84.51
14810;BME280;7496;57.566;11.936;2022-07-30T17:50:42;101553.69;;;24.19;84.57
14810;BME280;7496;57.566;11.936;2022-07-30T17:53:09;101551.22;;;24.17;88.84
14810;BME280;7496;57.566;11.936;2022-07-30T17:55:37;101557.81;;;24.11;88.97
14810;BME280;7496;57.566;11.936;2022-07-30T17:58:05;101545.44;;;23.94;89.47
14810;BME280;7496;57.566;11.936;2022-07-30T18:00:32;101557.19;;;23.84;89.26
14810;BME280;7496;57.566;11.936;2022-07-30T18:03:01;101552.78;;;23.68;90.62
14810;BME280;7496;57.566;11.936;2022-07-30T18:05:28;101548.91;;;23.59;90.82
14810;BME280;7496;57.566;11.936;2022-07-30T18:07:54;101558.13;;;23.47;92.54
14810;BME280;7496;57.566;11.936;2022-07-30T18:10:21;101547.19;;;23.47;90.97
14810;BME280;7496;57.566;11.936;2022-07-30T18:12:48;101549.06;;;23.42;92.98
14810;BME280;7496;57.566;11.936;2022-07-30T18:15:15;101545.50;;;23.36;92.66
14810;BME280;7496;57.566;11.936;2022-07-30T18:17:42;101552.63;;;23.37;91.86
14810;BME280;7496;57.566;11.936;2022-07-30T18:20:11;101552.31;;;23.34;90.92
14810;BME280;7496;57.566;11.936;2022-07-30T18:22:38;101547.38;;;23.31;93.81
14810;BME280;7496;57.566;11.936;2022-07-30T18:25:06;101550.91;;;23.26;92.22
14810;BME280;7496;57.566;11.936;2022-07-30T18:27:33;101555.56;;;23.26;94.86
14810;BME280;7496;57.566;11.936;2022-07-30T18:29:59;101545.44;;;23.26;95.65
14810;BME280;7496;57.566;11.936;2022-07-30T18:32:26;101537.50;;;23.25;96.06
14810;BME280;7496;57.566;11.936;2022-07-30T18:34:54;101541.06;;;23.25;96.65
14810;BME280;7496;57.566;11.936;2022-07-30T18:37:24;101547.06;;;23.22;97.06
14810;BME280;7496;57.566;11.936;2022-07-30T18:39:51;101542.72;;;23.26;97.77
14810;BME280;7496;57.566;11.936;2022-07-30T18:42:17;101545.50;;;23.36;97.45
14810;BME280;7496;57.566;11.936;2022-07-30T18:44:44;101537.81;;;23.28;97.45
14810;BME280;7496;57.566;11.936;2022-07-30T18:47:10;101540.56;;;23.33;97.62
14810;BME280;7496;57.566;11.936;2022-07-30T18:49:40;101532.34;;;23.28;97.58
14810;BME280;7496;57.566;11.936;2022-07-30T18:52:06;101531.72;;;23.21;96.84
14810;BME280;7496;57.566;11.936;2022-07-30T18:54:34;101545.44;;;23.26;98.12
14810;BME280;7496;57.566;11.936;2022-07-30T18:57:01;101538.84;;;23.22;98.98
14810;BME280;7496;57.566;11.936;2022-07-30T18:59:28;101538.84;;;23.22;98.79
14810;BME280;7496;57.566;11.936;2022-07-30T19:01:55;101540.75;;;23.17;98.39
14810;BME280;7496;57.566;11.936;2022-07-30T19:04:21;101541.78;;;23.10;96.98
14810;BME280;7496;57.566;11.936;2022-07-30T19:06:48;101540.97;;;23.05;98.66
14810;BME280;7496;57.566;11.936;2022-07-30T19:09:15;101543.19;;;23.13;99.16
14810;BME280;7496;57.566;11.936;2022-07-30T19:11:44;101533.81;;;22.99;99.00
14810;BME280;7496;57.566;11.936;2022-07-30T19:14:10;101536.00;;;22.97;98.67
14810;BME280;7496;57.566;11.936;2022-07-30T19:16:38;101539.50;;;22.92;99.34
14810;BME280;7496;57.566;11.936;2022-07-30T19:19:05;101540.56;;;22.86;98.37
14810;BME280;7496;57.566;11.936;2022-07-30T19:21:32;101550.38;;;22.82;100.00
14810;BME280;7496;57.566;11.936;2022-07-30T19:23:59;101536.69;;;22.77;98.64
14810;BME280;7496;57.566;11.936;2022-07-30T19:26:26;101547.22;;;22.63;99.16
14810;BME280;7496;57.566;11.936;2022-07-30T19:28:54;101550.59;;;22.44;98.52
14810;BME280;7496;57.566;11.936;2022-07-30T19:31:21;101547.47;;;22.30;100.00
14810;BME280;7496;57.566;11.936;2022-07-30T19:33:48;101549.84;;;22.21;100.00
14810;BME280;7496;57.566;11.936;2022-07-30T19:36:15;101544.63;;;22.15;100.00
14810;BME280;7496;57.566;11.936;2022-07-30T19:38:45;101548.34;;;22.03;99.79
14810;BME280;7496;57.566;11.936;2022-07-30T19:41:11;101551.00;;;21.98;100.00
14810;BME280;7496;57.566;11.936;2022-07-30T19:43:38;101545.72;;;21.92;100.00
14810;BME280;7496;57.566;11.936;2022-07-30T19:46:06;101556.31;;;21.88;100.00
14810;BME280;7496;57.566;11.936;2022-07-30T19:48:36;101551.06;;;21.82;100.00
14810;BME280;7496;57.566;11.936;2022-07-30T19:51:04;101550.75;;;21.78;100.00
14810;BME280;7496;57.566;11.936;2022-07-30T19:53:31;101547.97;;;21.73;100.00
14810;BME280;7496;57.566;11.936;2022-07-30T19:55:58;101550.63;;;21.68;100.00
14810;BME280;7496;57.566;11.936;2022-07-30T19:58:26;101551.34;;;21.58;100.00
14810;BME280;7496;57.566;11.936;2022-07-30T20:00:54;101548.88;;;21.57;100.00
14810;BME280;7496;57.566;11.936;2022-07-30T20:03:22;101551.22;;;21.48;100.00
14810;BME280;7496;57.566;11.936;2022-07-30T20:05:49;101546.47;;;21.39;100.00
14810;BME280;7496;57.566;11.936;2022-07-30T20:08:17;101547.28;;;21.39;100.00
14810;BME280;7496;57.566;11.936;2022-07-30T20:10:44;101552.44;;;21.36;100.00
14810;BME280;7496;57.566;11.936;2022-07-30T20:13:11;101556.25;;;21.35;100.00
14810;BME280;7496;57.566;11.936;2022-07-30T20:15:39;101549.63;;;21.30;100.00
14810;BME280;7496;57.566;11.936;2022-07-30T20:18:06;101564.34;;;21.29;100.00
14810;BME280;7496;57.566;11.936;2022-07-30T20:20:34;101557.22;;;21.28;100.00
14810;BME280;7496;57.566;11.936;2022-07-30T20:23:01;101562.78;;;21.34;100.00
14810;BME280;7496;57.566;11.936;2022-07-30T20:25:28;101570.97;;;21.34;100.00
14810;BME280;7496;57.566;11.936;2022-07-30T20:27:54;101561.69;;;21.35;100.00
14810;BME280;7496;57.566;11.936;2022-07-30T20:30:21;101561.69;;;21.35;100.00
14810;BME280;7496;57.566;11.936;2022-07-30T20:32:48;101551.28;;;21.32;100.00
14810;BME280;7496;57.566;11.936;2022-07-30T20:35:15;101554.00;;;21.32;100.00
14810;BME280;7496;57.566;11.936;2022-07-30T20:37:43;101546.84;;;21.25;100.00
14810;BME280;7496;57.566;11.936;2022-07-30T20:40:10;101556.75;;;21.32;100.00
14810;BME280;7496;57.566;11.936;2022-07-30T20:42:37;101555.09;;;21.30;100.00
14810;BME280;7496;57.566;11.936;2022-07-30T20:45:07;101549.00;;;21.23;100.00
14810;BME280;7496;57.566;11.936;2022-07-30T20:47:34;101550.13;;;21.27;100.00
14810;BME280;7496;57.566;11.936;2022-07-30T20:50:01;101546.31;;;21.28;100.00
14810;BME280;7496;57.566;11.936;2022-07-30T20:52:28;101543.06;;;21.26;100.00
14810;BME280;7496;57.566;11.936;2022-07-30T20:54:56;101539.75;;;21.24;100.00
14810;BME280;7496;57.566;11.936;2022-07-30T20:57:22;101532.31;;;21.20;100.00
14810;BME280;7496;57.566;11.936;2022-07-30T20:59:49;101547.69;;;21.26;100.00
14810;BME280;7496;57.566;11.936;2022-07-30T21:02:16;101547.34;;;21.22;100.00
14810;BME280;7496;57.566;11.936;2022-07-30T21:04:42;101543.72;;;21.17;100.00
14810;BME280;7496;57.566;11.936;2022-07-30T21:07:09;101545.03;;;21.14;100.00
14810;BME280;7496;57.566;11.936;2022-07-30T21:09:36;101541.22;;;21.15;100.00
14810;BME280;7496;57.566;11.936;2022-07-30T21:12:04;101539.56;;;21.14;100.00
14810;BME280;7496;57.566;11.936;2022-07-30T21:14:31;101533.47;;;21.07;100.00
14810;BME280;7496;57.566;11.936;2022-07-30T21:16:57;101529.03;;;21.01;100.00
14810;BME280;7496;57.566;11.936;2022-07-30T21:19:24;101530.69;;;21.02;100.00
14810;BME280;7496;57.566;11.936;2022-07-30T21:21:51;101530.59;;;20.97;100.00
14810;BME280;7496;57.566;11.936;2022-07-30T21:24:18;101531.16;;;20.99;100.00
14810;BME280;7496;57.566;11.936;2022-07-30T21:26:47;101527.38;;;21.00;100.00
14810;BME280;7496;57.566;11.936;2022-07-30T21:29:17;101529.03;;;21.01;100.00
14810;BME280;7496;57.566;11.936;2022-07-30T21:31:44;101529.03;;;21.01;100.00
14810;BME280;7496;57.566;11.936;2022-07-30T21:34:11;101530.09;;;21.00;100.00
14810;BME280;7496;57.566;11.936;2022-07-30T21:36:37;101515.63;;;21.00;100.00
14810;BME280;7496;57.566;11.936;2022-07-30T21:39:04;101512.63;;;20.96;100.00
14810;BME280;7496;57.566;11.936;2022-07-30T21:41:31;101519.13;;;20.95;100.00
14810;BME280;7496;57.566;11.936;2022-07-30T21:43:58;101504.94;;;20.93;100.00
14810;BME280;7496;57.566;11.936;2022-07-30T21:46:26;101511.22;;;20.93;100.00
14810;BME280;7496;57.566;11.936;2022-07-30T21:48:52;101516.56;;;20.88;100.00
14810;BME280;7496;57.566;11.936;2022-07-30T21:51:20;101513.53;;;20.85;100.00
14810;BME280;7496;57.566;11.936;2022-07-30T21:53:46;101514.38;;;20.85;100.00
14810;BME280;7496;57.566;11.936;2022-07-30T21:56:13;101510.47;;;20.81;100.00
14810;BME280;7496;57.566;11.936;2022-07-30T21:58:41;101509.06;;;20.79;100.00
14810;BME280;7496;57.566;11.936;2022-07-30T22:01:07;101512.38;;;20.81;100.00
14810;BME280;7496;57.566;11.936;2022-07-30T22:03:36;101517.25;;;20.79;100.00
14810;BME280;7496;57.566;11.936;2022-07-30T22:06:03;101512.88;;;20.78;100.00
14810;BME280;7496;57.566;11.936;2022-07-30T22:08:30;101521.56;;;20.75;100.00
14810;BME280;7496;57.566;11.936;2022-07-30T22:10:57;101527.06;;;20.80;100.00
14810;BME280;7496;57.566;11.936;2022-07-30T22:13:24;101517.00;;;20.80;100.00
14810;BME280;7496;57.566;11.936;2022-07-30T22:15:50;101516.19;;;20.80;100.00
14810;BME280;7496;57.566;11.936;2022-07-30T22:18:17;101522.63;;;20.74;100.00
14810;BME280;7496;57.566;11.936;2022-07-30T22:20:47;101524.59;;;20.78;100.00
14810;BME280;7496;57.566;11.936;2022-07-30T22:23:14;101524.78;;;20.72;100.00
14810;BME280;7496;57.566;11.936;2022-07-30T22:25:40;101512.16;;;20.66;100.00
14810;BME280;7496;57.566;11.936;2022-07-30T22:28:07;101517.69;;;20.71;100.00
14810;BME280;7496;57.566;11.936;2022-07-30T22:30:34;101516.59;;;20.72;100.00
14810;BME280;7496;57.566;11.936;2022-07-30T22:33:09;101520.34;;;20.66;100.00
14810;BME280;7496;57.566;11.936;2022-07-30T22:35:37;101493.91;;;20.49;100.00
14810;BME280;7496;57.566;11.936;2022-07-30T22:38:06;101502.50;;;20.58;100.00
14810;BME280;7496;57.566;11.936;2022-07-30T22:40:34;101498.94;;;20.57;100.00
14810;BME280;7496;57.566;11.936;2022-07-30T22:43:05;101505.16;;;20.53;100.00
14810;BME280;7496;57.566;11.936;2022-07-30T22:45:32;101508.88;;;20.64;100.00
14810;BME280;7496;57.566;11.936;2022-07-30T22:47:59;101512.06;;;20.61;100.00
14810;BME280;7496;57.566;11.936;2022-07-30T22:50:25;101514.81;;;20.61;100.00